CheckWX is a tool to help pilots better visualize weather data.  It is not intended as a substitute for an official pre-flight weather briefing.

06:43:17 UTC

EBBR METAR
Brussels Airport
Brussels, Belgium
Current

23 mins ago

EBBR 190620Z 00000KT 9999 SCT047 07/06 Q1030 NOSIG
Observed
Sep-19 @ 06:20 UTC
Visibility
10,000+ meters
Flight Rules
VFR
Cloud Levels
  • Scattered at 4,700' AGL
Temperature
C / 45°F
Dewpoint
C / 43°F
Humidity
93%
Altimeter
30.41" Hg
Pressure
1029.92 hPa
Previous

53 mins ago

EBBR 190550Z 36001KT CAVOK 06/05 Q1030 NOSIG
Observed
Sep-19 @ 05:50 UTC
Wind
  • 360° at 1 KTS
Visibility
10,000+ meters
Flight Rules
VFR
Cloud Levels
  • Clear skies
Temperature
C / 43°F
Dewpoint
C / 41°F
Humidity
93%
Altimeter
30.41" Hg
Pressure
1029.92 hPa
Previous

1 hour ago

EBBR 190520Z 13001KT 9999 BKN046 06/06 Q1030 NOSIG
Observed
Sep-19 @ 05:20 UTC
Wind
  • 130° at 1 KTS
Visibility
10,000+ meters
Flight Rules
VFR
Cloud Levels
  • Broken at 4,600' AGL
Temperature
C / 43°F
Dewpoint
C / 43°F
Humidity
100%
Altimeter
30.41" Hg
Pressure
1029.92 hPa